SWR2808 LSZH-LSGG
Flight info
| Callsign | SWR2808 |
|---|---|
| Flight time | 0h 25m |
| Altitude | 18000 |
| Route | VEBIT T50 ROTOS Z669 ULMES |
| Aircraft | A320/M-SDE3FGHIRWY/LB1 |
Departure
| Time | 2026-05-03 21:12 |
|---|---|
| Airport | Zürich Airport (LSZH) |
Arrival
| Time | 2026-05-03 21:38 |
|---|---|
| Airport | Geneva International Airport (LSGG) |
| Time | Latitude | Longitude | Altitude | Speed | Heading |
|---|---|---|---|---|---|
| 2026-05-03 20:50 | 47.45411 | 8.56002 | 1407 ft | 0 kts | 186° |
| 2026-05-03 21:00 | 47.45418 | 8.56003 | 1413 ft | 2 kts | 186° |
| 2026-05-03 21:00 | 47.45435 | 8.56005 | 1407 ft | 2 kts | 186° |
| 2026-05-03 21:01 | 47.45452 | 8.56008 | 1410 ft | 2 kts | 186° |
| 2026-05-03 21:01 | 47.45469 | 8.56010 | 1407 ft | 2 kts | 210° |
| 2026-05-03 21:01 | 47.45482 | 8.56018 | 1409 ft | 2 kts | 225° |
| 2026-05-03 21:01 | 47.45489 | 8.56037 | 1414 ft | 2 kts | 277° |
| 2026-05-03 21:02 | 47.45488 | 8.56045 | 1411 ft | 0 kts | 277° |
| 2026-05-03 21:05 | 47.45489 | 8.56032 | 1407 ft | 5 kts | 276° |
| 2026-05-03 21:05 | 47.45495 | 8.55950 | 1407 ft | 10 kts | 275° |
| 2026-05-03 21:05 | 47.45516 | 8.55852 | 1408 ft | 10 kts | 322° |
| 2026-05-03 21:06 | 47.45590 | 8.55848 | 1409 ft | 8 kts | 5° |
| 2026-05-03 21:06 | 47.45622 | 8.55852 | 1409 ft | 0 kts | 5° |
| 2026-05-03 21:06 | 47.45627 | 8.55853 | 1408 ft | 3 kts | 5° |
| 2026-05-03 21:07 | 47.45669 | 8.55859 | 1408 ft | 9 kts | 5° |
| 2026-05-03 21:07 | 47.45745 | 8.55871 | 1412 ft | 13 kts | 7° |
| 2026-05-03 21:07 | 47.45815 | 8.55890 | 1413 ft | 8 kts | 19° |
| 2026-05-03 21:07 | 47.45886 | 8.55925 | 1411 ft | 14 kts | 19° |
| 2026-05-03 21:08 | 47.45962 | 8.55978 | 1407 ft | 8 kts | 47° |
| 2026-05-03 21:08 | 47.45969 | 8.56079 | 1407 ft | 12 kts | 97° |
| 2026-05-03 21:08 | 47.45960 | 8.56207 | 1410 ft | 10 kts | 96° |
| 2026-05-03 21:08 | 47.45960 | 8.56273 | 1411 ft | 7 kts | 76° |
| 2026-05-03 21:09 | 47.45999 | 8.56316 | 1411 ft | 8 kts | 9° |
| 2026-05-03 21:09 | 47.46012 | 8.56318 | 1411 ft | 0 kts | 6° |
| 2026-05-03 21:10 | 47.46020 | 8.56320 | 1411 ft | 6 kts | 6° |
| 2026-05-03 21:10 | 47.46085 | 8.56360 | 1413 ft | 10 kts | 44° |
| 2026-05-03 21:10 | 47.46136 | 8.56414 | 1413 ft | 8 kts | 15° |
| 2026-05-03 21:10 | 47.46169 | 8.56392 | 1413 ft | 0 kts | 315° |
| 2026-05-03 21:11 | 47.46179 | 8.56377 | 1414 ft | 13 kts | 315° |
| 2026-05-03 21:12 | 47.46459 | 8.55989 | 1402 ft | 100 kts | 317° |
| 2026-05-03 21:12 | 47.47178 | 8.55016 | 1404 ft | 173 kts | 317° |
| 2026-05-03 21:12 | 47.48083 | 8.53779 | 2129 ft | 179 kts | 317° |
| 2026-05-03 21:12 | 47.49012 | 8.52537 | 2858 ft | 192 kts | 316° |
| 2026-05-03 21:13 | 47.50170 | 8.51339 | 3429 ft | 213 kts | 330° |
| 2026-05-03 21:13 | 47.51495 | 8.50267 | 4282 ft | 220 kts | 329° |
| 2026-05-03 21:13 | 47.52733 | 8.48810 | 4890 ft | 243 kts | 307° |
| 2026-05-03 21:13 | 47.53492 | 8.46398 | 5048 ft | 281 kts | 278° |
| 2026-05-03 21:14 | 47.53300 | 8.43358 | 5062 ft | 319 kts | 250° |
| 2026-05-03 21:14 | 47.52219 | 8.40285 | 5067 ft | 356 kts | 230° |
| 2026-05-03 21:14 | 47.50189 | 8.37956 | 5164 ft | 381 kts | 206° |
| 2026-05-03 21:14 | 47.47903 | 8.36535 | 5935 ft | 335 kts | 199° |
| 2026-05-03 21:15 | 47.45747 | 8.35737 | 6202 ft | 304 kts | 189° |
| 2026-05-03 21:15 | 47.43752 | 8.35345 | 6471 ft | 275 kts | 186° |
| 2026-05-03 21:15 | 47.41945 | 8.35042 | 6721 ft | 249 kts | 188° |
| 2026-05-03 21:15 | 47.40318 | 8.34418 | 6986 ft | 246 kts | 203° |
| 2026-05-03 21:16 | 47.38811 | 8.33031 | 7384 ft | 262 kts | 222° |
| 2026-05-03 21:16 | 47.37640 | 8.30927 | 8143 ft | 269 kts | 239° |
| 2026-05-03 21:16 | 47.36767 | 8.28481 | 8908 ft | 270 kts | 242° |
| 2026-05-03 21:16 | 47.35904 | 8.26025 | 9694 ft | 275 kts | 242° |
| 2026-05-03 21:17 | 47.35011 | 8.23498 | 10444 ft | 280 kts | 242° |
| 2026-05-03 21:17 | 47.34399 | 8.21775 | 10937 ft | 282 kts | 241° |
| 2026-05-03 21:17 | 47.33186 | 8.18362 | 11939 ft | 286 kts | 242° |
| 2026-05-03 21:17 | 47.32256 | 8.15750 | 12689 ft | 290 kts | 242° |
| 2026-05-03 21:18 | 47.31293 | 8.13038 | 12998 ft | 309 kts | 242° |
| 2026-05-03 21:18 | 47.30253 | 8.10114 | 13056 ft | 334 kts | 242° |
| 2026-05-03 21:18 | 47.29135 | 8.06971 | 13071 ft | 359 kts | 242° |
| 2026-05-03 21:18 | 47.27944 | 8.03632 | 13065 ft | 375 kts | 242° |
| 2026-05-03 21:19 | 47.26746 | 8.00182 | 13070 ft | 379 kts | 245° |
| 2026-05-03 21:19 | 47.25733 | 7.96585 | 13073 ft | 380 kts | 247° |
| 2026-05-03 21:19 | 47.24729 | 7.92987 | 13066 ft | 381 kts | 247° |
| 2026-05-03 21:19 | 47.23723 | 7.89379 | 13070 ft | 381 kts | 247° |
| 2026-05-03 21:20 | 47.22716 | 7.85779 | 13070 ft | 381 kts | 247° |
| 2026-05-03 21:20 | 47.21707 | 7.82182 | 13398 ft | 381 kts | 247° |
| 2026-05-03 21:20 | 47.20693 | 7.78571 | 13934 ft | 384 kts | 247° |
| 2026-05-03 21:20 | 47.19687 | 7.74990 | 14584 ft | 384 kts | 246° |
| 2026-05-03 21:21 | 47.18416 | 7.71490 | 15266 ft | 384 kts | 235° |
| 2026-05-03 21:21 | 47.16803 | 7.68431 | 15955 ft | 384 kts | 231° |
| 2026-05-03 21:21 | 47.15144 | 7.65361 | 16660 ft | 384 kts | 231° |
| 2026-05-03 21:21 | 47.13470 | 7.62266 | 16998 ft | 394 kts | 231° |
| 2026-05-03 21:22 | 47.11732 | 7.59052 | 17069 ft | 403 kts | 231° |
| 2026-05-03 21:22 | 47.09980 | 7.55817 | 17071 ft | 406 kts | 231° |
| 2026-05-03 21:22 | 47.08223 | 7.52570 | 17071 ft | 406 kts | 231° |
| 2026-05-03 21:22 | 47.06467 | 7.49332 | 17060 ft | 406 kts | 231° |
| 2026-05-03 21:23 | 47.04704 | 7.46087 | 17059 ft | 406 kts | 231° |
| 2026-05-03 21:23 | 47.02941 | 7.42846 | 17059 ft | 406 kts | 231° |
| 2026-05-03 21:23 | 47.01179 | 7.39615 | 17070 ft | 406 kts | 231° |
| 2026-05-03 21:23 | 46.99410 | 7.36386 | 17057 ft | 407 kts | 231° |
| 2026-05-03 21:24 | 46.97635 | 7.33150 | 17059 ft | 407 kts | 231° |
| 2026-05-03 21:24 | 46.95862 | 7.29925 | 17059 ft | 407 kts | 231° |
| 2026-05-03 21:24 | 46.94108 | 7.26735 | 17058 ft | 407 kts | 231° |
| 2026-05-03 21:24 | 46.92335 | 7.23509 | 17062 ft | 407 kts | 231° |
| 2026-05-03 21:25 | 46.90565 | 7.20283 | 17060 ft | 407 kts | 231° |
| 2026-05-03 21:25 | 46.88795 | 7.17053 | 17080 ft | 407 kts | 231° |
| 2026-05-03 21:25 | 46.87019 | 7.13818 | 17085 ft | 407 kts | 231° |
| 2026-05-03 21:25 | 46.85242 | 7.10590 | 16984 ft | 407 kts | 231° |
| 2026-05-03 21:26 | 46.83466 | 7.07372 | 16964 ft | 406 kts | 231° |
| 2026-05-03 21:26 | 46.81692 | 7.04164 | 16944 ft | 406 kts | 231° |
| 2026-05-03 21:26 | 46.79917 | 7.00953 | 16914 ft | 406 kts | 231° |
| 2026-05-03 21:26 | 46.78148 | 6.97751 | 16887 ft | 406 kts | 231° |
| 2026-05-03 21:27 | 46.76373 | 6.94539 | 16687 ft | 405 kts | 231° |
| 2026-05-03 21:27 | 46.74611 | 6.91353 | 16381 ft | 403 kts | 231° |
| 2026-05-03 21:27 | 46.72855 | 6.88181 | 16075 ft | 401 kts | 230° |
| 2026-05-03 21:27 | 46.71101 | 6.85023 | 15769 ft | 400 kts | 230° |
| 2026-05-03 21:28 | 46.69352 | 6.81881 | 15396 ft | 397 kts | 230° |
| 2026-05-03 21:28 | 46.67616 | 6.78767 | 15032 ft | 395 kts | 230° |
| 2026-05-03 21:28 | 46.65912 | 6.75705 | 14667 ft | 393 kts | 230° |
| 2026-05-03 21:28 | 46.64164 | 6.72666 | 14306 ft | 390 kts | 228° |
| 2026-05-03 21:29 | 46.62377 | 6.69712 | 13951 ft | 388 kts | 227° |
| 2026-05-03 21:29 | 46.60571 | 6.66811 | 13559 ft | 386 kts | 227° |
| 2026-05-03 21:29 | 46.58773 | 6.63951 | 13160 ft | 378 kts | 226° |
| 2026-05-03 21:29 | 46.57019 | 6.61163 | 12664 ft | 370 kts | 226° |
| 2026-05-03 21:30 | 46.55281 | 6.58389 | 11770 ft | 375 kts | 226° |
| 2026-05-03 21:30 | 46.53510 | 6.55548 | 10626 ft | 383 kts | 226° |
| 2026-05-03 21:30 | 46.51763 | 6.52726 | 9690 ft | 368 kts | 226° |
| 2026-05-03 21:30 | 46.50064 | 6.50000 | 8394 ft | 362 kts | 226° |
| 2026-05-03 21:31 | 46.48377 | 6.47320 | 7111 ft | 357 kts | 227° |
| 2026-05-03 21:31 | 46.46737 | 6.44671 | 6324 ft | 343 kts | 227° |
| 2026-05-03 21:31 | 46.45182 | 6.42246 | 6021 ft | 312 kts | 225° |
| 2026-05-03 21:31 | 46.43754 | 6.40119 | 6014 ft | 278 kts | 224° |
| 2026-05-03 21:32 | 46.42465 | 6.38242 | 6009 ft | 248 kts | 223° |
| 2026-05-03 21:32 | 46.41317 | 6.36583 | 6003 ft | 220 kts | 223° |
| 2026-05-03 21:32 | 46.40294 | 6.35103 | 6041 ft | 198 kts | 223° |
| 2026-05-03 21:32 | 46.39336 | 6.33717 | 6035 ft | 193 kts | 223° |
| 2026-05-03 21:33 | 46.38361 | 6.32308 | 5297 ft | 211 kts | 223° |
| 2026-05-03 21:33 | 46.37319 | 6.30799 | 4840 ft | 211 kts | 224° |
| 2026-05-03 21:33 | 46.36308 | 6.29320 | 4553 ft | 202 kts | 224° |
| 2026-05-03 21:33 | 46.35351 | 6.27910 | 4281 ft | 189 kts | 225° |
| 2026-05-03 21:34 | 46.34469 | 6.26605 | 4037 ft | 174 kts | 225° |
| 2026-05-03 21:34 | 46.33650 | 6.25396 | 3823 ft | 162 kts | 225° |
| 2026-05-03 21:34 | 46.32874 | 6.24251 | 3608 ft | 158 kts | 225° |
| 2026-05-03 21:34 | 46.32111 | 6.23124 | 3406 ft | 155 kts | 225° |
| 2026-05-03 21:35 | 46.31359 | 6.22016 | 3200 ft | 154 kts | 225° |
| 2026-05-03 21:35 | 46.30608 | 6.20909 | 2984 ft | 153 kts | 224° |
| 2026-05-03 21:35 | 46.29863 | 6.19811 | 2784 ft | 153 kts | 225° |
| 2026-05-03 21:35 | 46.29112 | 6.18703 | 2559 ft | 154 kts | 225° |
| 2026-05-03 21:36 | 46.28372 | 6.17614 | 2360 ft | 150 kts | 226° |
| 2026-05-03 21:36 | 46.27649 | 6.16549 | 2154 ft | 148 kts | 227° |
| 2026-05-03 21:36 | 46.26929 | 6.15489 | 1956 ft | 148 kts | 227° |
| 2026-05-03 21:36 | 46.26208 | 6.14429 | 1756 ft | 148 kts | 226° |
| 2026-05-03 21:37 | 46.25490 | 6.13373 | 1559 ft | 150 kts | 226° |
| 2026-05-03 21:37 | 46.24758 | 6.12298 | 1376 ft | 148 kts | 226° |
| 2026-05-03 21:37 | 46.24143 | 6.11388 | 1374 ft | 95 kts | 225° |
| 2026-05-03 21:37 | 46.23702 | 6.10745 | 1382 ft | 77 kts | 225° |
| 2026-05-03 21:38 | 46.23396 | 6.10295 | 1401 ft | 34 kts | 225° |
| 2026-05-03 21:38 | 46.23248 | 6.10145 | 1399 ft | 22 kts | 203° |
| 2026-05-03 21:38 | 46.23143 | 6.10094 | 1399 ft | 7 kts | 193° |
| 2026-05-03 21:38 | 46.23117 | 6.10093 | 1407 ft | 0 kts | 168° |
| 2026-05-03 21:39 | 46.23110 | 6.10096 | 1405 ft | 2 kts | 158° |
| 2026-05-03 21:40 | 46.23089 | 6.10120 | 1398 ft | 6 kts | 122° |
| 2026-05-03 21:40 | 46.23095 | 6.10183 | 1394 ft | 7 kts | 53° |
| 2026-05-03 21:40 | 46.23129 | 6.10237 | 1394 ft | 7 kts | 48° |
| 2026-05-03 21:40 | 46.23162 | 6.10295 | 1393 ft | 8 kts | 48° |
| 2026-05-03 21:41 | 46.23202 | 6.10354 | 1393 ft | 9 kts | 45° |
| 2026-05-03 21:41 | 46.23241 | 6.10413 | 1399 ft | 4 kts | 65° |
| 2026-05-03 21:41 | 46.23228 | 6.10433 | 1397 ft | 2 kts | 142° |
| 2026-05-03 21:41 | 46.23211 | 6.10437 | 1400 ft | 6 kts | 172° |
| 2026-05-03 21:42 | 46.23183 | 6.10437 | 1394 ft | 0 kts | 180° |
| 2026-05-03 21:42 | 46.23179 | 6.10437 | 1396 ft | 1 kts | 179° |
| 2026-05-03 21:42 | 46.23174 | 6.10436 | 1395 ft | 2 kts | 181° |
| 2026-05-03 21:42 | 46.23168 | 6.10436 | 1394 ft | 1 kts | 180° |
| 2026-05-03 21:43 | 46.23167 | 6.10436 | 1393 ft | 0 kts | 180° |